Flight Track Log - Related Links

Times and Time Zones

All times are in EDT time to prevent confusion due to time zone crossing. See the N329JB flight status page for this flight to view local times or setup timezone preferences in your user account.

Time Position Orientation Groundspeed Altitude Reporting Facility
EDT Latitude Longitude Course Direction KTS MPH feet Rate Location/Type
Mon 06:36:02 AM 41.5000 -74.1667 246° West 180 207 2,000  Level New York TRACON
Mon 06:37:03 AM 41.5400 -74.2261 312° West 177 204 3,800 2,392 Climbing Boston Center
Mon 06:38:00 AM 41.7423 -74.5475 252° West  Level FlightAware Approximate
Mon 06:38:40 AM 41.6219 -74.3397 314° West 252 290 8,300  Level New York Center
Mon 06:39:00 AM 41.7078 -74.6856 252° West  Level FlightAware Approximate
Mon 06:39:41 AM 41.6742 -74.4092 315° West 289 333 10,800  Level New York Center
Mon 06:40:00 AM 41.6658 -74.8197 249° West  Level FlightAware Approximate
Mon 06:40:41 AM 41.6931 -74.5322 282° West 311 358 12,700  Level New York Center
Mon 06:41:00 AM 41.6281 -74.9492 246° West  Level FlightAware Approximate
Mon 06:41:39 AM 41.6667 -74.6419 252° West 330 380 15,200  Level New York Center
Mon 06:42:39 AM 41.6369 -74.7817 254° West 353 406 17,700 1,736 Climbing New York Center
Mon 06:43:40 AM 41.6128 -74.8800 252° West 358 412 18,700 1,884 Climbing New York Center
Mon 06:44:40 AM 41.5825 -75.0281 255° West 363 418 21,500 2,218 Climbing New York Center
Mon 06:45:39 AM 41.5531 -75.1536 253° West 363 418 23,100 1,600 Climbing New York Center
Mon 06:46:40 AM 41.5208 -75.2872 252° West 363 418 24,700 1,426 Climbing New York Center
Mon 06:47:41 AM 41.4886 -75.4236 253° West 376 433 26,000 1,412 Climbing New York Center
Mon 06:48:39 AM 41.4997 -75.5656 276° West 386 444 27,500 1,350 Climbing New York Center
Mon 06:49:41 AM 41.5417 -75.7072 292° West 392 451 28,700 1,279 Climbing New York Center
Mon 06:50:41 AM 41.5814 -75.8514 290° West 403 464 30,100 1,261 Climbing New York Center
Mon 06:51:40 AM 41.6211 -75.9933 291° West 409 471 31,200 1,119 Climbing New York Center
Mon 06:52:39 AM 41.6608 -76.1325 291° West 409 471 32,300 1,000 Climbing New York Center
Mon 06:53:40 AM 41.6622 -76.2797 271° West 409 471 33,200 836 Climbing New York Center
Mon 06:54:41 AM 41.6125 -76.4061 242° Southwest 380 437 34,000 400 Climbing New York Center
Mon 06:55:40 AM 41.5567 -76.5317 239° Southwest 385 443 34,000  Level New York Center
Mon 06:56:40 AM 41.5003 -76.6625 240° Southwest 396 456 34,000  Level New York Center
Mon 06:57:39 AM 41.4367 -76.8064 240° Southwest 408 470 34,000  Level New York Center
Mon 06:58:41 AM 41.3822 -76.9342 240° Southwest 408 470 34,000  Level New York Center
Mon 06:59:40 AM 41.3256 -77.0644 240° Southwest 408 470 34,000  Level New York Center
Mon 07:00:41 AM 41.2431 -77.1617 222° Southwest 408 470 34,000  Level New York Center
Mon 07:01:39 AM 41.1322 -77.1706 183° South 373 429 34,000  Level New York Center
Mon 07:02:39 AM 41.0142 -77.1594 176° South 388 447 34,000  Level New York Center
Mon 07:03:39 AM 40.9003 -77.1433 174° South 408 470 34,000  Level New York Center
Mon 07:04:41 AM 40.7864 -77.1300 175° South 413 475 34,000  Level New York Center
Mon 07:05:41 AM 40.6703 -77.1164 175° South 418 481 34,000  Level New York Center
Mon 07:06:39 AM 40.5564 -77.1031 175° South 418 481 34,000  Level New York Center
Mon 07:07:39 AM 40.4447 -77.0875 174° South 418 481 34,000  Level New York Center
Mon 07:08:39 AM 40.3286 -77.0742 175° South 418 481 34,000  Level New York Center
Mon 07:09:40 AM 40.2197 -77.0858 185° South 418 481 34,000  Level New York Center
Mon 07:10:40 AM 40.1211 -77.0961 185° South 404 465 34,000  Level New York Center
Mon 07:12:30 AM 39.9019 -77.1169 184° South 391 450 34,000  Level Washington Center
Mon 07:13:30 AM 39.7917 -77.1011 174° South 391 450 34,000  Level Washington Center
Mon 07:14:31 AM 39.6775 -77.0664 167° South 404 465 34,000  Level Washington Center
Mon 07:15:30 AM 39.5697 -77.0292 165° South 409 471 34,000  Level Washington Center
Mon 07:16:30 AM 39.4700 -76.9975 166° South 409 471 34,000  Level Washington Center
Mon 07:17:30 AM 39.3600 -76.9606 165° South 409 471 34,000  Level Washington Center
Mon 07:18:30 AM 39.2500 -76.9236 165° South 414 476 34,000  Level Washington Center
Mon 07:19:30 AM 39.1397 -76.8894 166° South 414 476 34,000  Level Washington Center
Mon 07:20:30 AM 39.0319 -76.8528 165° South 408 470 34,000  Level Washington Center
Mon 07:21:30 AM 38.9281 -76.8192 166° South 403 464 34,000  Level Washington Center
Mon 07:22:30 AM 38.8219 -76.7853 166° South 398 458 34,000  Level Washington Center
Mon 07:23:30 AM 38.7161 -76.7517 166° South 392 451 34,000  Level Washington Center
Mon 07:24:30 AM 38.6078 -76.7342 173° South 392 451 34,000  Level Washington Center
Mon 07:25:30 AM 38.4994 -76.7219 175° South 392 451 34,000  Level Washington Center
Mon 07:26:30 AM 38.3953 -76.7069 174° South 387 445 34,000  Level Washington Center
Mon 07:27:30 AM 38.2808 -76.6867 172° South 387 445 34,000  Level Washington Center
Mon 07:28:30 AM 38.1767 -76.6719 174° South 387 445 34,000  Level Washington Center
Mon 07:29:30 AM 38.0706 -76.6600 175° South 387 445 34,000  Level Washington Center
Mon 07:30:30 AM 37.9664 -76.6481 175° South 387 445 34,000  Level Washington Center
Mon 07:31:30 AM 37.8681 -76.6572 184° South 379 436 34,000  Level Washington Center
Mon 07:32:30 AM 37.7658 -76.6714 186° South 373 429 34,000  Level Washington Center
Mon 07:33:30 AM 37.6678 -76.6831 185° South 367 422 34,000  Level Washington Center
Mon 07:34:30 AM 37.5675 -76.6947 185° South 367 422 34,000  Level Washington Center
Mon 07:35:30 AM 37.4692 -76.7117 188° South 367 422 34,000  Level Washington Center
Mon 07:36:30 AM 37.3731 -76.7494 197° South 367 422 34,000  Level Washington Center
Mon 07:37:30 AM 37.2786 -76.7900 199° South 367 422 34,000  Level Washington Center
Mon 07:38:30 AM 37.2033 -76.8200 198° South 367 422 34,000  Level Washington Center
Mon 07:39:30 AM 37.0986 -76.8653 199° South 367 422 34,000  Level Washington Center
Mon 07:40:30 AM 37.0042 -76.9028 198° South 367 422 34,000  Level Washington Center
Mon 07:41:30 AM 36.9119 -76.9428 199° South 362 417 34,000  Level Washington Center
Mon 07:42:30 AM 36.8197 -76.9800 198° South 362 417 34,000  Level Washington Center
Mon 07:43:30 AM 36.7256 -77.0197 199° South 362 417 34,000  Level Washington Center
Mon 07:44:30 AM 36.6311 -77.0569 198° South 362 417 34,000  Level Washington Center
Mon 07:45:30 AM 36.5242 -77.0989 197° South 368 423 34,000  Level Washington Center
Mon 07:46:30 AM 36.4486 -77.1308 199° South 368 423 34,000  Level Washington Center
Mon 07:47:30 AM 36.3356 -77.1750 197° South 368 423 34,000  Level Washington Center
Mon 07:48:30 AM 36.2389 -77.2169 199° South 368 423 34,000  Level Washington Center
Mon 07:49:30 AM 36.1425 -77.2508 196° South 368 423 34,000  Level Washington Center
Mon 07:50:30 AM 36.0669 -77.2853 200° South 354 407 34,000  Level Washington Center
Mon 07:51:30 AM 35.9703 -77.3217 197° South 354 407 34,000  Level Washington Center
Mon 07:52:30 AM 35.8758 -77.3608 199° South 359 413 34,000  Level Washington Center
Mon 07:53:30 AM 35.7814 -77.3969 197° South 364 419 34,000  Level Washington Center
Mon 07:54:30 AM 35.6869 -77.4358 198° South 364 419 34,000  Level Washington Center
Mon 07:55:30 AM 35.5906 -77.4744 198° South 364 419 34,000  Level Washington Center
Mon 07:56:30 AM 35.4939 -77.5106 197° South 364 419 34,000  Level Washington Center
Mon 07:57:30 AM 35.3972 -77.5464 197° South 364 419 34,000  Level Washington Center
Mon 07:58:30 AM 35.3147 -77.6131 213° Southwest 364 419 34,000  Level Washington Center
Mon 07:59:30 AM 35.2406 -77.6928 221° Southwest 358 412 34,000  Level Washington Center
Mon 08:00:30 AM 35.1617 -77.7744 220° Southwest 368 423 34,000  Level Washington Center
Mon 08:01:30 AM 35.0872 -77.8536 221° Southwest 368 423 34,000  Level Washington Center
Mon 08:02:31 AM 35.0108 -77.9300 219° Southwest 368 423 34,000  Level Washington Center
Mon 08:03:30 AM 34.9319 -78.0114 220° Southwest 363 418 34,000  Level Washington Center
Mon 08:04:30 AM 34.8553 -78.0903 220° Southwest 363 418 34,000  Level Washington Center
Mon 08:05:30 AM 34.7719 -78.1811 222° Southwest 368 423 34,000  Level Washington Center
Mon 08:07:20 AM 34.6381 -78.3203 221° Southwest 374 430 34,000  Level Jacksonville Center
Mon 08:08:20 AM 34.5575 -78.4003 219° Southwest 374 430 34,000  Level Jacksonville Center
Mon 08:09:20 AM 34.4789 -78.4797 220° Southwest 374 430 34,000  Level Jacksonville Center
Mon 08:10:20 AM 34.4025 -78.5567 220° Southwest 368 423 34,000  Level Jacksonville Center
Mon 08:11:20 AM 34.3236 -78.6361 220° Southwest 373 429 34,000  Level Jacksonville Center
Mon 08:12:20 AM 34.2431 -78.7153 219° Southwest 373 429 34,000  Level Jacksonville Center
Mon 08:13:20 AM 34.1642 -78.7969 221° Southwest 373 429 34,000  Level Jacksonville Center
Mon 08:14:20 AM 34.0856 -78.8758 220° Southwest 373 429 34,000  Level Jacksonville Center
Mon 08:15:20 AM 34.0044 -78.9547 219° Southwest 373 429 34,000  Level Jacksonville Center
Mon 08:16:20 AM 33.9214 -79.0336 218° Southwest 378 435 34,000  Level Jacksonville Center
Mon 08:17:20 AM 33.8403 -79.1144 220° Southwest 378 435 34,000  Level Jacksonville Center
Mon 08:18:20 AM 33.7614 -79.1928 220° Southwest 378 435 34,000  Level Jacksonville Center
Mon 08:19:20 AM 33.6761 -79.2739 218° Southwest 369 425 34,000  Level Jacksonville Center
Mon 08:20:20 AM 33.5928 -79.3569 220° Southwest 369 425 34,000  Level Jacksonville Center
Mon 08:21:20 AM 33.5136 -79.4350 219° Southwest 369 425 34,000  Level Jacksonville Center
Mon 08:22:20 AM 33.4325 -79.5178 220° Southwest 379 436 34,000  Level Jacksonville Center
Mon 08:23:20 AM 33.3489 -79.5981 219° Southwest 379 436 34,000  Level Jacksonville Center
Mon 08:24:20 AM 33.2675 -79.6781 219° Southwest 384 442 34,000  Level Jacksonville Center
Mon 08:25:20 AM 33.1858 -79.7553 218° Southwest 389 448 34,000  Level Jacksonville Center
Mon 08:26:20 AM 33.1003 -79.8378 219° Southwest 389 448 34,000  Level Jacksonville Center
Mon 08:27:20 AM 33.0167 -79.9175 219° Southwest 389 448 34,000  Level Jacksonville Center
Mon 08:28:20 AM 32.9308 -79.9994 219° Southwest 389 448 34,000  Level Jacksonville Center
Mon 08:29:20 AM 32.8511 -80.0686 216° Southwest 389 448 34,000  Level Jacksonville Center
Mon 08:30:20 AM 32.7608 -80.1383 213° Southwest 394 453 34,000  Level Jacksonville Center
Mon 08:31:20 AM 32.6642 -80.2078 211° Southwest 400 460 34,000  Level Jacksonville Center
Mon 08:32:20 AM 32.5694 -80.2772 212° Southwest 406 467 34,000  Level Jacksonville Center
Mon 08:33:20 AM 32.4792 -80.3439 212° Southwest 406 467 34,000  Level Jacksonville Center
Mon 08:34:20 AM 32.3822 -80.4128 211° Southwest 406 467 34,000  Level Jacksonville Center
Mon 08:35:20 AM 32.2744 -80.4503 196° South 400 460 34,000  Level Jacksonville Center
Mon 08:36:20 AM 32.1622 -80.4728 190° South 400 460 34,000  Level Jacksonville Center
Mon 08:37:20 AM 32.0417 -80.5006 191° South 411 473 34,000  Level Jacksonville Center
Mon 08:38:20 AM 31.9272 -80.5256 191° South 411 473 34,000  Level Jacksonville Center
Mon 08:39:20 AM 31.8275 -80.5500 192° South 411 473 34,000  Level Jacksonville Center
Mon 08:40:20 AM 31.7050 -80.5800 192° South 411 473 34,000  Level Jacksonville Center
Mon 08:41:20 AM 31.5906 -80.6025 190° South 419 482 34,000  Level Jacksonville Center
Mon 08:42:20 AM 31.4825 -80.6294 192° South 408 470 34,000  Level Jacksonville Center
Mon 08:43:20 AM 31.3681 -80.6542 190° South 408 470 34,000  Level Jacksonville Center
Mon 08:44:20 AM 31.2578 -80.6761 190° South 408 470 34,000  Level Jacksonville Center
Mon 08:45:20 AM 31.1456 -80.7031 192° South 414 476 34,000  Level Jacksonville Center
Mon 08:46:20 AM 31.0353 -80.7300 192° South 414 476 34,000  Level Jacksonville Center
Mon 08:47:20 AM 30.9231 -80.7567 192° South 409 471 34,000  Level Jacksonville Center
Mon 08:48:20 AM 30.8106 -80.7811 191° South 409 471 34,000  Level Jacksonville Center
Mon 08:49:20 AM 30.6964 -80.8078 191° South 409 471 34,000  Level Jacksonville Center
Mon 08:50:20 AM 30.5839 -80.8319 190° South 409 471 34,000  Level Jacksonville Center
Mon 08:51:20 AM 30.4694 -80.8489 187° South 409 471 34,000  Level Jacksonville Center
Mon 08:52:20 AM 30.3528 -80.8681 188° South 414 476 34,000  Level Jacksonville Center
Mon 08:53:20 AM 30.2361 -80.8875 188° South 420 483 34,000 -500 Level Jacksonville Center
Mon 08:54:20 AM 30.1217 -80.9067 188° South 425 489 33,000 -1,350 Descending Jacksonville Center
Mon 08:55:20 AM 30.0300 -80.9228 189° South 425 489 31,300 -2,100 Descending Jacksonville Center
Mon 08:56:20 AM 29.8864 -80.9472 188° South 430 495 28,800 -2,300 Descending Jacksonville Center
Mon 08:57:20 AM 29.7675 -80.9664 188° South 436 502 26,700 -2,150 Descending Jacksonville Center
Mon 08:58:20 AM 29.6553 -80.9878 189° South 430 495 24,500 -2,150 Descending Jacksonville Center
Mon 08:59:20 AM 29.5406 -81.0067 188° South 425 489 22,400 -1,950 Descending Jacksonville Center
Mon 09:00:20 AM 29.4386 -81.0231 188° South 420 483 20,600 -5,200 Descending Jacksonville Center
Mon 09:01:20 AM 29.3283 -81.0419 188° South 414 476 12,000 -2,050 Descending Jacksonville Center
Mon 09:02:20 AM 29.2219 -81.0581 188° South 403 464 16,500 1,200 Climbing Jacksonville Center
Mon 09:03:20 AM 29.1181 -81.0742 188° South 392 451 14,400 -2,100 Descending Jacksonville Center
Mon 09:04:20 AM 29.0181 -81.0903 188° South 381 438 12,300 -1,850 Descending Jacksonville Center
Mon 09:05:20 AM 28.9200 -81.1064 188° South 371 427 10,700 -1,405 Descending Jacksonville Center
Mon 09:06:11 AM 28.8333 -81.1167 186° South 297 342 9,700 -919 Descending Orlando TRACON
Mon 09:07:11 AM 28.7667 -81.1333 192° South 284 327 9,000 -350 Descending Orlando TRACON
Mon 09:08:11 AM 28.6833 -81.1500 190° South 278 320 9,000  Level Orlando TRACON
Mon 09:09:11 AM 28.6167 -81.1500 180° South 228 262 9,000 -100 Level Orlando TRACON
Mon 09:10:11 AM 28.5500 -81.1667 192° South 235 270 8,800 -700 Descending Orlando TRACON
Mon 09:11:11 AM 28.4833 -81.1667 180° South 232 267 7,600 -1,150 Descending Orlando TRACON
Mon 09:12:11 AM 28.4167 -81.1833 192° South 230 265 6,500 -1,150 Descending Orlando TRACON
Mon 09:13:11 AM 28.3500 -81.1833 180° South 231 266 5,300 -750 Descending Orlando TRACON
Mon 09:14:11 AM 28.3000 -81.1833 180° South 180 207 5,000 -600 Descending Orlando TRACON
Mon 09:15:11 AM 28.2500 -81.1833 180° South 180 207 4,100 -1,050 Descending Orlando TRACON
Mon 09:16:11 AM 28.2500 -81.2500 270° West 173 199 2,900 -1,140 Descending Orlando TRACON
Mon 09:17:12 AM 28.2667 -81.2833 300° West 159 183 1,800 -650 Descending Orlando TRACON
Mon 09:18:11 AM 28.3000 -81.3000 336° Northwest 167 192 1,600 -303 Descending Orlando TRACON
Mon 09:19:11 AM 28.3500 -81.3000 360° North 160 184 1,200 -550 Descending Orlando TRACON
Mon 09:20:11 AM 28.3833 -81.3000 360° North 119 137 500 -700 Descending Orlando TRACON
Mon 09:22:00 AM 28.4167 -81.3000 336° Northwest  Level FlightAware Approximate
Mon 09:29:00 AM 28.4294 -81.3090 336° Northwest  Level Estimated
Mon 09:30:00 AM 28.4294 -81.3090 336° Northwest  Level Estimated
Mon 09:31:00 AM 28.4294 -81.3090 336° Northwest  Level Estimated

Login

Don't have an account? Register now (free) for customized features, flight alerts, and more!